• Join FlightAware (Why Join?)
  • Login
  • US Flag 
11:24PM EDT


 

Airport Tracker/Info


-or-


 

Live Flight TrackerFlight Track Log ✈ EGF2980 ✈ 01-May-2013 ✈ KCSG - KDFW

Flight Track Log - Related Links

Times and Time Zones

All times are in EDT time to prevent confusion due to time zone crossing. See the EGF2980 flight status page for this flight to view local times or setup timezone preferences in your user account.

Time Position Orientation Groundspeed Altitude Reporting Facility
EDT Latitude Longitude Course Direction KTS MPH feet Rate Location/Type
07:29AM 32.5167 -85.0000 270° West 208 239 2,100  Level Atlanta TRACON
07:30AM 32.5167 -85.0667 270° West 248 285 4,700 2,640 Climbing Atlanta TRACON
07:31AM 32.4951 -85.2872 264° West  Level FlightAware Approximate
07:31AM 32.5053 -85.1842 263° West 261 300 8,200  Level Atlanta Center
07:32AM 32.4844 -85.4045 264° West  Level FlightAware Approximate
07:32AM 32.5022 -85.2753 268° West 273 314 10,600  Level Atlanta Center
07:33AM 32.4834 -85.5225 270° West  Level FlightAware Approximate
07:33AM 32.4969 -85.3786 267° West 294 338 12,100  Level Atlanta Center
07:34AM 32.4833 -85.6405 270° West  Level FlightAware Approximate
07:34AM 32.4936 -85.4967 268° West 329 379 13,200  Level Atlanta Center
07:35AM 32.4858 -85.6197 266° West 360 414 14,600 1,500 Climbing Atlanta Center
07:36AM 32.4819 -85.7478 268° West 379 436 16,200 1,500 Climbing Atlanta Center
07:37AM 32.4803 -85.8733 269° West 391 450 17,700 1,200 Climbing Atlanta Center
07:38AM 32.4719 -86.0011 266° West 386 444 18,600 960 Climbing Atlanta Center
07:39AM 32.4719 -86.1292 270° West 386 444 19,700 1,260 Climbing Atlanta Center
07:40AM 32.4656 -86.2619 267° West 398 458 21,200 1,320 Climbing Atlanta Center
07:41AM 32.4653 -86.3925 270° West 403 464 22,400 1,080 Climbing Atlanta Center
07:42AM 32.4686 -86.5328 272° West 411 473 23,400 780 Climbing Atlanta Center
07:43AM 32.4658 -86.6706 269° West 416 479 24,000 300 Climbing Atlanta Center
07:44AM 32.4569 -86.7933 265° West 422 486 24,000 600 Level Atlanta Center
07:45AM 32.4536 -86.9408 269° West 435 501 25,200 2,460 Climbing Atlanta Center
07:46AM 32.4483 -87.0714 267° West 426 490 29,000 2,700 Climbing Atlanta Center
07:47AM 32.4433 -87.1892 267° West 392 451 30,600 1,800 Climbing Atlanta Center
07:48AM 32.4403 -87.3047 268° West 370 426 32,600 1,860 Climbing Atlanta Center
07:49AM 32.4389 -87.4350 269° West 362 417 34,400 1,380 Climbing Atlanta Center
07:50AM 32.4356 -87.5506 268° West 362 417 35,400 780 Climbing Atlanta Center
07:51AM 32.4281 -87.6661 266° West 362 417 36,000 180 Climbing Atlanta Center
07:54AM 32.4186 -87.9383 268° West 375 432 36,000  Level Memphis Center
07:55AM 32.4128 -88.0589 267° West 375 432 36,000  Level Memphis Center
07:56AM 32.4086 -88.1819 268° West 381 438 36,000  Level Memphis Center
07:57AM 32.4022 -88.3028 266° West 381 438 36,000  Level Memphis Center
07:58AM 32.3958 -88.4283 267° West 381 438 36,000  Level Memphis Center
07:59AM 32.3897 -88.5614 267° West 386 444 36,000  Level Memphis Center
08:00AM 32.3831 -88.6869 266° West 386 444 36,000  Level Memphis Center
08:01AM 32.3806 -88.8150 269° West 386 444 36,000  Level Memphis Center
08:02AM 32.3861 -88.9428 273° West 386 444 36,000  Level Memphis Center
08:03AM 32.3939 -89.0756 274° West 391 450 36,000  Level Memphis Center
08:04AM 32.4014 -89.2058 274° West 397 457 36,000  Level Memphis Center
08:05AM 32.4067 -89.3386 273° West 403 464 36,000  Level Memphis Center
08:06AM 32.4142 -89.4739 274° West 408 470 36,000  Level Memphis Center
08:07AM 32.4211 -89.6067 274° West 408 470 36,000  Level Memphis Center
08:08AM 32.4283 -89.7444 274° West 408 470 36,000  Level Memphis Center
08:09AM 32.4331 -89.8797 272° West 413 475 36,000  Level Memphis Center
08:10AM 32.4397 -90.0175 273° West 423 487 36,000  Level Memphis Center
08:11AM 32.4464 -90.1556 273° West 423 487 36,000  Level Memphis Center
08:12AM 32.4528 -90.2933 273° West 423 487 36,000  Level Memphis Center
08:13AM 32.4569 -90.4336 272° West 423 487 36,000  Level Memphis Center
08:14AM 32.4650 -90.5739 274° West 423 487 36,000  Level Memphis Center
08:15AM 32.4711 -90.7119 273° West 423 487 36,000  Level Memphis Center
08:16AM 32.4747 -90.8522 272° West 423 487 36,000  Level Memphis Center
08:17AM 32.4803 -90.9928 273° West 423 487 36,000  Level Memphis Center
08:19AM 32.4925 -91.2542 273° West 437 503 36,000  Level Fort Worth Center
08:20AM 32.4997 -91.3989 273° West 437 503 36,000  Level Fort Worth Center
08:21AM 32.5022 -91.5389 271° West 437 503 36,000  Level Fort Worth Center
08:22AM 32.5089 -91.6839 273° West 437 503 36,000  Level Fort Worth Center
08:23AM 32.5131 -91.8242 272° West 437 503 36,000  Level Fort Worth Center
08:24AM 32.5172 -91.9692 272° West 437 503 36,000  Level Fort Worth Center
08:25AM 32.5131 -92.1147 268° West 437 503 36,000  Level Fort Worth Center
08:26AM 32.5044 -92.2581 266° West 442 509 36,000  Level Fort Worth Center
08:27AM 32.4936 -92.4014 265° West 442 509 36,000  Level Fort Worth Center
08:28AM 32.4864 -92.5372 266° West 436 502 36,000  Level Fort Worth Center
08:29AM 32.4753 -92.6831 265° West 436 502 36,000  Level Fort Worth Center
08:30AM 32.4619 -92.8292 264° West 447 514 36,000  Level Fort Worth Center
08:31AM 32.4506 -92.9772 265° West 447 514 36,000  Level Fort Worth Center
08:32AM 32.4386 -93.1206 264° West 447 514 36,000  Level Fort Worth Center
08:33AM 32.4269 -93.2639 265° West 447 514 36,000  Level Fort Worth Center
08:34AM 32.4192 -93.4119 266° West 447 514 36,000  Level Fort Worth Center
08:35AM 32.4069 -93.5528 264° West 447 514 36,000  Level Fort Worth Center
08:36AM 32.3964 -93.6933 265° West 447 514 36,000  Level Fort Worth Center
08:37AM 32.3861 -93.8364 265° West 447 514 36,000  Level Fort Worth Center
08:38AM 32.3753 -93.9747 265° West 440 506 36,000  Level Fort Worth Center
08:39AM 32.3644 -94.1178 265° West 440 506 36,000  Level Fort Worth Center
08:40AM 32.3494 -94.2633 263° West 447 514 36,000  Level Fort Worth Center
08:41AM 32.3403 -94.4061 266° West 447 514 36,000  Level Fort Worth Center
08:42AM 32.3292 -94.5492 265° West 447 514 36,000 -300 Level Fort Worth Center
08:43AM 32.3156 -94.6897 264° West 447 514 35,400 -900 Descending Fort Worth Center
08:44AM 32.3061 -94.8375 266° West 447 514 34,200 -1,200 Descending Fort Worth Center
08:45AM 32.2608 -94.9764 249° West 424 488 33,000 -1,320 Descending Fort Worth Center
08:46AM 32.1881 -95.0986 235° Southwest 433 498 31,600 -1,500 Descending Fort Worth Center
08:47AM 32.1086 -95.2208 233° Southwest 456 525 30,100 -840 Descending Fort Worth Center
08:48AM 32.0314 -95.3403 233° Southwest 468 539 30,000 -600 Descending Fort Worth Center
08:49AM 31.9561 -95.4544 232° Southwest 462 532 28,900 -1,260 Descending Fort Worth Center
08:50AM 31.8847 -95.5686 234° Southwest 456 525 27,500 -1,260 Descending Fort Worth Center
08:51AM 31.8572 -95.7011 256° West 416 479 26,400 -1,320 Descending Fort Worth Center
08:52AM 31.8633 -95.8356 273° West 409 471 24,900 -1,200 Descending Fort Worth Center
08:53AM 31.8711 -95.9653 274° West 409 471 24,000 -1,020 Descending Fort Worth Center
08:54AM 31.8869 -96.0750 280° West 368 423 22,900 -1,380 Descending Fort Worth Center
08:55AM 31.9725 -96.0933 350° North 269 310 21,300 -1,560 Descending Fort Worth Center
08:56AM 32.0625 -96.1019 355° North 283 326 19,800 -1,620 Descending Fort Worth Center
08:57AM 32.1342 -96.1672 322° Northwest 307 353 18,100 -1,620 Descending Fort Worth Center
08:58AM 32.1994 -96.2325 320° Northwest 318 366 16,600 -1,380 Descending Fort Worth Center
08:59AM 32.2564 -96.3031 314° West 304 350 15,400 -1,200 Descending Fort Worth Center
09:00AM 32.3114 -96.3661 316° Northwest 299 344 14,200 -1,260 Descending Fort Worth Center
09:01AM 32.3744 -96.4417 315° West 299 344 12,900 -1,200 Descending Fort Worth Center
09:02AM 32.4272 -96.5053 315° West 299 344 11,800 -960 Descending Fort Worth Center
09:03AM 32.4903 -96.5808 315° West 294 338 11,000 -420 Descending Fort Worth Center
09:04AM 32.5408 -96.6397 316° Northwest 289 333 11,000  Level Fort Worth Center
09:05AM 32.5997 -96.7106 315° West 284 327 11,000  Level Fort Worth Center
09:06AM 32.6500 -96.7719 314° West 284 327 11,000  Level Fort Worth Center
09:06AM 32.6667 -96.8000 305° West 282 325 11,000  Level Dallas / Fort Worth TRACON
09:07AM 32.7333 -96.8500 328° Northwest 277 319 11,000  Level Dallas / Fort Worth TRACON
09:08AM 32.7833 -96.9000 320° Northwest 234 269 11,000 -300 Level Dallas / Fort Worth TRACON
09:09AM 32.8500 -96.9000 360° North 242 278 10,400 -1,080 Descending Dallas / Fort Worth TRACON
09:10AM 32.9167 -96.9000 360° North 239 275 8,900 -1,500 Descending Dallas / Fort Worth TRACON
09:11AM 32.9667 -96.9000 360° North 232 267 7,600 -960 Descending Dallas / Fort Worth TRACON
09:12AM 33.0500 -96.9000 360° North 233 268 7,000 -300 Descending Dallas / Fort Worth TRACON
09:13AM 33.1000 -96.9000 360° North 227 261 7,000  Level Dallas / Fort Worth TRACON
09:14AM 33.1667 -96.9000 360° North 235 270 7,000  Level Dallas / Fort Worth TRACON
09:15AM 33.2333 -96.9000 360° North 231 266 7,000 -240 Level Dallas / Fort Worth TRACON
09:16AM 33.2667 -96.9667 301° West 242 278 6,600 -480 Descending Dallas / Fort Worth TRACON
09:17AM 33.2333 -97.0167 231° Southwest 256 295 6,000 -600 Descending Dallas / Fort Worth TRACON